Portada
METAR-TAF:

METAR-TAF

Aeroports :

Burgos, Espanya

latitud: 42-22N, longitud: 003-38W, altitud: 894 m

Observació

L'informe es va fer fa 31 minuts, a les 21:00 UTC
Vent 6 kt del Nord-Est
Temperatura 17°C
Humitat 68%
Pressió 1021 hPa
Visibilitat 10 km o més

METAR: LEBG 232100Z AUTO 05006KT 9999 NCD 17/11 Q1021

Hora: 23:31 (21:31 UTC)

Pronòstic

L'informe es va fer fa 4 hores i 31 minuts, a les 17:00 UTC
Pronòstic vàlid del 23 a les 18 UTC al 24 a les 03 UTC
Vent 10 kt del Est/Nord-Est
Visibilitat 10 km o més
sense núvols per sota de 1500 mi sense presència de cumulonimbus.
Evolucionant progressivament
l' 24 a les 01 UTC al 24 a les 03 UTC
Vent 5 kt amb direcció variable

TAF: LEBG 231700Z 2318/2403 06010KT CAVOK BECMG 2401/2403 VRB05KT

Observacions i pronòstics meteorològics de més de 4000 aeroports (METAR i TAF).

Les estacions disponibles són els punts grocs i vermells al mapa.

Posi el ratolí al punt desitjat per veure el nom de l'estació.

Feu clic per veure les observacions i els pronòstics meteorològics.

Per canviar el mapa: feu clic els botons verds amb una creu de color negre per apropar; al botó verd amb un guió per allunyar la imatge; o en les fletxes verdes per a mapes adjacents.


METAR-TAF: